createdAt,value
2022-10-14T00:00:14.812Z,6.599999905
2022-10-14T00:01:45.711Z,11.39999962
2022-10-14T00:02:46.146Z,7.800000191
2022-10-14T00:03:46.661Z,10
2022-10-14T00:04:47.090Z,7.5
2022-10-14T00:05:47.670Z,8.199999809
2022-10-14T00:06:48.169Z,8.300000191
2022-10-14T00:07:48.673Z,8.5
2022-10-14T00:08:50.081Z,9.100000381
2022-10-14T00:09:50.872Z,8.199999809
2022-10-14T00:10:51.375Z,7.5
2022-10-14T00:11:51.948Z,7.599999905
2022-10-14T00:12:52.461Z,8.600000381
2022-10-14T00:13:52.972Z,8.899999619
2022-10-14T00:14:53.492Z,8.100000381
2022-10-14T00:15:53.983Z,7.099999905
2022-10-14T00:16:54.484Z,9.300000191
2022-10-14T00:17:55.052Z,8.399999619
2022-10-14T00:18:56.541Z,9.300000191
2022-10-14T00:19:57.073Z,6.699999809
2022-10-14T00:20:57.556Z,7.5
2022-10-14T00:21:58.053Z,7
2022-10-14T00:22:59.593Z,7.199999809
2022-10-14T00:24:01.053Z,6
2022-10-14T00:25:01.615Z,7.599999905
2022-10-14T00:26:02.079Z,8
2022-10-14T00:27:02.602Z,7.099999905
2022-10-14T00:28:03.115Z,6.800000191
2022-10-14T00:29:04.564Z,6.900000095
2022-10-14T00:30:05.171Z,6.900000095
2022-10-14T00:31:05.770Z,7
2022-10-14T00:32:06.243Z,6.5
2022-10-14T00:33:06.768Z,8.699999809
2022-10-14T00:34:07.310Z,6.900000095
2022-10-14T00:35:07.814Z,7.800000191
2022-10-14T00:36:08.289Z,6.5
2022-10-14T00:37:08.802Z,5.699999809
2022-10-14T00:38:09.318Z,9.399999619
2022-10-14T00:39:10.487Z,7.599999905
2022-10-14T00:40:11.068Z,8.600000381
2022-10-14T00:41:11.569Z,6.300000191
2022-10-14T00:42:13.046Z,11.19999981
2022-10-14T00:43:44.028Z,7.199999809
2022-10-14T00:44:44.504Z,7.599999905
2022-10-14T00:45:45.069Z,6.699999809
2022-10-14T00:46:45.575Z,10.69999981
2022-10-14T00:47:46.127Z,6.099999905
2022-10-14T00:48:47.256Z,6.199999809
2022-10-14T00:49:47.745Z,7
2022-10-14T00:50:48.232Z,6.800000191
2022-10-14T00:51:48.749Z,6
2022-10-14T00:52:49.291Z,7.800000191
2022-10-14T00:53:50.593Z,7.400000095
2022-10-14T00:54:51.086Z,5.699999809
2022-10-14T00:55:51.531Z,7.699999809
2022-10-14T00:56:52.099Z,6.599999905
2022-10-14T00:57:52.611Z,10.10000038
2022-10-14T00:58:53.807Z,8.5
2022-10-14T00:59:54.366Z,6.5
2022-10-14T01:00:54.869Z,6.400000095
2022-10-14T01:01:55.323Z,8.399999619
2022-10-14T01:02:55.870Z,6.5
2022-10-14T01:03:56.329Z,6.699999809
2022-10-14T01:04:56.822Z,5.5
2022-10-14T01:05:57.324Z,6.5
2022-10-14T01:06:57.796Z,6.300000191
2022-10-14T01:07:58.282Z,7.900000095
2022-10-14T01:08:59.786Z,6.599999905
2022-10-14T01:10:00.273Z,6.099999905
2022-10-14T01:11:00.780Z,6.199999809
2022-10-14T01:12:23.860Z,8.100000381
2022-10-14T01:13:01.824Z,10.89999962
2022-10-14T01:14:02.383Z,8.300000191
2022-10-14T01:15:02.868Z,6.599999905
2022-10-14T01:16:03.449Z,8.5
2022-10-14T01:17:03.928Z,6.099999905
2022-10-14T01:18:04.462Z,5.199999809
2022-10-14T01:19:05.984Z,6
2022-10-14T01:20:07.299Z,5.900000095
2022-10-14T01:21:07.809Z,6.300000191
2022-10-14T01:22:08.326Z,5.5
2022-10-14T01:23:08.832Z,5.099999905
2022-10-14T01:24:09.305Z,7.900000095
2022-10-14T01:25:09.863Z,6.699999809
2022-10-14T01:26:10.370Z,7.099999905
2022-10-14T01:27:10.924Z,6.099999905
2022-10-14T01:28:12.042Z,5.5
2022-10-14T01:29:13.270Z,5.800000191
2022-10-14T01:30:44.038Z,5.099999905
2022-10-14T01:31:44.610Z,5.199999809
2022-10-14T01:32:45.127Z,5.599999905
2022-10-14T01:33:45.647Z,5.199999809
2022-10-14T01:34:46.136Z,4.900000095
2022-10-14T01:35:46.647Z,5.699999809
2022-10-14T01:36:47.167Z,6.099999905
2022-10-14T01:37:47.660Z,6.300000191
2022-10-14T01:38:48.827Z,5.199999809
2022-10-14T01:39:49.307Z,5.699999809
2022-10-14T01:40:49.761Z,4.199999809
2022-10-14T01:41:50.547Z,5
2022-10-14T01:42:51.103Z,4.199999809
2022-10-14T01:43:51.729Z,4.599999905
2022-10-14T01:44:52.251Z,3.900000095
2022-10-14T01:45:52.736Z,4.099999905
2022-10-14T01:46:53.245Z,4.800000191
2022-10-14T01:47:53.792Z,4
2022-10-14T01:48:55.315Z,5.400000095
2022-10-14T01:49:55.886Z,4.199999809
2022-10-14T01:50:56.394Z,4.099999905
2022-10-14T01:51:56.880Z,3.299999952
2022-10-14T01:52:57.373Z,5.800000191
2022-10-14T01:53:58.630Z,3.799999952
2022-10-14T01:54:59.103Z,3.200000048
2022-10-14T01:55:59.602Z,4.300000191
2022-10-14T01:57:00.109Z,2.799999952
2022-10-14T01:58:00.611Z,3.299999952
2022-10-14T01:59:01.794Z,4.900000095
2022-10-14T02:00:02.338Z,3
2022-10-14T02:01:03.828Z,3.400000095
2022-10-14T02:02:04.372Z,2.700000048
2022-10-14T02:03:04.825Z,8
2022-10-14T02:04:05.355Z,3.799999952
2022-10-14T02:05:05.852Z,4.699999809
2022-10-14T02:06:06.409Z,3.299999952
2022-10-14T02:07:06.919Z,4.900000095
2022-10-14T02:08:07.416Z,3.200000048
2022-10-14T02:09:08.793Z,4.300000191
2022-10-14T02:10:09.275Z,3.799999952
2022-10-14T02:11:09.826Z,3.700000048
2022-10-14T02:12:10.350Z,4.5
2022-10-14T02:13:10.865Z,3.599999905
2022-10-14T02:14:11.432Z,6.5
2022-10-14T02:15:11.929Z,3.799999952
2022-10-14T02:16:42.895Z,4.800000191
2022-10-14T02:17:43.454Z,6.099999905
2022-10-14T02:18:43.957Z,3.900000095
2022-10-14T02:19:45.042Z,3.799999952
2022-10-14T02:20:45.512Z,5.099999905
2022-10-14T02:21:45.996Z,7.800000191
2022-10-14T02:22:46.580Z,4.5
2022-10-14T02:23:47.798Z,4.900000095
2022-10-14T02:24:48.364Z,4.400000095
2022-10-14T02:25:48.823Z,6
2022-10-14T02:26:49.303Z,3.700000048
2022-10-14T02:27:49.799Z,5.599999905
2022-10-14T02:28:50.773Z,5.199999809
2022-10-14T02:29:52.119Z,4.599999905
2022-10-14T02:30:52.631Z,5.099999905
2022-10-14T02:31:53.087Z,4
2022-10-14T02:32:53.565Z,5.099999905
2022-10-14T02:33:54.088Z,6.099999905
2022-10-14T02:34:54.623Z,4.699999809
2022-10-14T02:35:55.141Z,7.099999905
2022-10-14T02:36:55.678Z,4.800000191
2022-10-14T02:37:56.204Z,4.699999809
2022-10-14T02:38:56.687Z,5.800000191
2022-10-14T02:39:58.092Z,4.5
2022-10-14T02:40:58.641Z,5.400000095
2022-10-14T02:41:59.149Z,5.5
2022-10-14T02:42:59.647Z,3.900000095
2022-10-14T02:44:00.156Z,5.599999905
2022-10-14T02:45:00.648Z,4.800000191
2022-10-14T02:46:01.162Z,5.300000191
2022-10-14T02:47:01.708Z,5
2022-10-14T02:48:02.251Z,3.299999952
2022-10-14T02:49:02.697Z,6.300000191
2022-10-14T02:50:04.027Z,4.599999905
2022-10-14T02:51:04.526Z,5.199999809
2022-10-14T02:52:05.060Z,5.900000095
2022-10-14T02:53:05.597Z,5.300000191
2022-10-14T02:54:06.100Z,6.900000095
2022-10-14T02:55:07.286Z,5.900000095
2022-10-14T02:56:07.800Z,7
2022-10-14T02:57:08.370Z,6.699999809
2022-10-14T02:58:08.897Z,7.5
2022-10-14T02:59:09.382Z,7.5
2022-10-14T03:00:10.538Z,11.19999981
2022-10-14T03:01:11.058Z,4.199999809
2022-10-14T03:02:11.998Z,5.599999905
2022-10-14T03:03:42.806Z,3.5
2022-10-14T03:04:43.294Z,5.199999809
2022-10-14T03:05:43.775Z,4.800000191
2022-10-14T03:06:44.297Z,5.099999905
2022-10-14T03:07:44.773Z,4.199999809
2022-10-14T03:08:45.407Z,4.400000095
2022-10-14T03:09:46.829Z,5.099999905
2022-10-14T03:10:47.350Z,10.39999962
2022-10-14T03:11:47.852Z,8.5
2022-10-14T03:12:48.372Z,8.199999809
2022-10-14T03:13:48.893Z,7.300000191
2022-10-14T03:14:49.410Z,7.5
2022-10-14T03:15:49.946Z,9.300000191
2022-10-14T03:16:50.634Z,8.399999619
2022-10-14T03:17:51.110Z,9.5
2022-10-14T03:18:51.605Z,8.800000191
2022-10-14T03:19:52.841Z,9.199999809
2022-10-14T03:20:53.393Z,10.69999981
2022-10-14T03:21:53.867Z,9
2022-10-14T03:22:54.368Z,10.10000038
2022-10-14T03:23:54.864Z,8.800000191
2022-10-14T03:24:56.305Z,9.699999809
2022-10-14T03:25:56.841Z,12.39999962
2022-10-14T03:26:57.369Z,10.60000038
2022-10-14T03:27:57.865Z,10.69999981
2022-10-14T03:28:58.408Z,10.60000038
2022-10-14T03:29:59.532Z,9.800000191
2022-10-14T03:31:00.010Z,8.600000381
2022-10-14T03:32:00.521Z,14.10000038
2022-10-14T03:33:01.087Z,10.30000019
2022-10-14T03:34:01.604Z,13.39999962
2022-10-14T03:35:02.090Z,12.10000038
2022-10-14T03:36:02.644Z,11.39999962
2022-10-14T03:37:03.158Z,11.19999981
2022-10-14T03:38:03.660Z,9.5
2022-10-14T03:39:04.206Z,10.39999962
2022-10-14T03:40:05.568Z,10
2022-10-14T03:41:06.132Z,11.30000019
2022-10-14T03:42:06.594Z,10.19999981
2022-10-14T03:43:07.171Z,8.699999809
2022-10-14T03:44:07.713Z,8.800000191
2022-10-14T03:45:08.198Z,9.800000191
2022-10-14T03:46:08.678Z,9.100000381
2022-10-14T03:47:10.020Z,10.39999962
2022-10-14T03:48:10.585Z,8
2022-10-14T03:49:42.827Z,9.300000191
2022-10-14T03:50:43.304Z,10.19999981
2022-10-14T03:51:43.815Z,10.5
2022-10-14T03:52:46.757Z,8.100000381
2022-10-14T03:53:44.865Z,6.599999905
2022-10-14T03:54:46.099Z,7.599999905
2022-10-14T03:55:46.624Z,7.5
2022-10-14T03:56:47.127Z,5
2022-10-14T03:57:47.656Z,5.599999905
2022-10-14T03:58:48.165Z,7.599999905
2022-10-14T03:59:49.316Z,7
2022-10-14T04:00:49.818Z,7.900000095
2022-10-14T04:02:20.795Z,5.800000191
2022-10-14T04:03:51.337Z,6
2022-10-14T04:04:51.879Z,8.600000381
2022-10-14T04:05:52.405Z,5.599999905
2022-10-14T04:06:52.926Z,3.900000095
2022-10-14T04:07:53.447Z,5.099999905
2022-10-14T04:08:54.792Z,3.400000095
2022-10-14T04:09:55.793Z,3.700000048
2022-10-14T04:10:56.249Z,3.099999905
2022-10-14T04:11:57.809Z,3.700000048
2022-10-14T04:12:57.358Z,4.900000095
2022-10-14T04:13:57.882Z,2.700000048
2022-10-14T04:14:58.409Z,4
2022-10-14T04:15:58.887Z,3
2022-10-14T04:16:59.386Z,2.900000095
2022-10-14T04:17:59.939Z,3.299999952
2022-10-14T04:19:00.529Z,3.799999952
2022-10-14T04:20:01.063Z,2.400000095
2022-10-14T04:21:02.044Z,3
2022-10-14T04:22:02.535Z,1.899999976
2022-10-14T04:23:03.079Z,3.099999905
2022-10-14T04:24:08.035Z,4
2022-10-14T04:25:04.828Z,3
2022-10-14T04:26:05.299Z,2.900000095
2022-10-14T04:27:05.874Z,5.800000191
2022-10-14T04:28:06.371Z,1.899999976
2022-10-14T04:29:06.976Z,4.400000095
2022-10-14T04:30:08.353Z,2.099999905
2022-10-14T04:31:08.848Z,2
2022-10-14T04:32:09.388Z,3.299999952
2022-10-14T04:33:09.901Z,2.599999905
2022-10-14T04:34:10.839Z,4.300000191
2022-10-14T04:35:41.706Z,3.599999905
2022-10-14T04:36:42.230Z,2.900000095
2022-10-14T04:37:42.721Z,3.099999905
2022-10-14T04:38:43.190Z,1.799999952
2022-10-14T04:39:43.661Z,3
2022-10-14T04:40:45.126Z,2.5
2022-10-14T04:41:45.644Z,6
2022-10-14T04:42:46.165Z,3.599999905
2022-10-14T04:43:46.679Z,2.200000048
2022-10-14T04:44:47.198Z,2.599999905
2022-10-14T04:45:47.726Z,2.599999905
2022-10-14T04:46:48.253Z,2.299999952
2022-10-14T04:47:48.952Z,3
2022-10-14T04:48:49.297Z,4.699999809
2022-10-14T04:49:49.810Z,2.599999905
2022-10-14T04:50:51.054Z,2.599999905
2022-10-14T04:51:51.591Z,1.799999952
2022-10-14T04:52:52.127Z,3
2022-10-14T04:53:52.651Z,2.200000048
2022-10-14T04:54:53.789Z,2.400000095
2022-10-14T04:55:54.476Z,2.700000048
2022-10-14T04:56:54.975Z,3
2022-10-14T04:57:55.536Z,3.700000048
2022-10-14T04:58:56.073Z,2.900000095
2022-10-14T04:59:57.306Z,5.400000095
2022-10-14T05:00:58.852Z,2.5
2022-10-14T05:01:59.421Z,3.099999905
2022-10-14T05:02:59.868Z,3.099999905
2022-10-14T05:04:00.442Z,3.299999952
2022-10-14T05:05:00.981Z,2.799999952
2022-10-14T05:06:01.531Z,4
2022-10-14T05:07:02.021Z,3.099999905
2022-10-14T05:08:02.538Z,2.700000048
2022-10-14T05:09:03.094Z,5.900000095
2022-10-14T05:10:03.655Z,4.400000095
2022-10-14T05:11:05.084Z,3.200000048
2022-10-14T05:12:05.561Z,3.799999952
2022-10-14T05:13:06.064Z,3
2022-10-14T05:14:06.568Z,3.599999905
2022-10-14T05:15:07.198Z,4.199999809
2022-10-14T05:16:07.714Z,4.800000191
2022-10-14T05:17:08.185Z,2.400000095
2022-10-14T05:18:08.697Z,2.299999952
2022-10-14T05:19:09.164Z,3.400000095
2022-10-14T05:20:09.640Z,4.800000191
2022-10-14T05:21:41.386Z,5.199999809
2022-10-14T05:22:41.873Z,2.599999905
2022-10-14T05:23:42.382Z,2.799999952
2022-10-14T05:24:42.912Z,2.700000048
2022-10-14T05:25:44.033Z,3.5
2022-10-14T05:26:44.654Z,4.5
2022-10-14T05:27:45.104Z,4.5
2022-10-14T05:28:45.710Z,3.299999952
2022-10-14T05:29:46.212Z,3.599999905
2022-10-14T05:30:47.566Z,4.300000191
2022-10-14T05:31:48.102Z,3.700000048
2022-10-14T05:32:48.650Z,3.700000048
2022-10-14T05:33:49.141Z,4
2022-10-14T05:34:49.654Z,3.700000048
2022-10-14T05:35:59.224Z,4.199999809
2022-10-14T05:36:50.995Z,4.800000191
2022-10-14T05:37:51.479Z,2.900000095
2022-10-14T05:38:52.002Z,4.400000095
2022-10-14T05:39:52.545Z,4.900000095
2022-10-14T05:40:53.540Z,2.700000048
2022-10-14T05:41:54.034Z,2.900000095
2022-10-14T05:42:54.476Z,5.199999809
2022-10-14T05:43:55.022Z,2.900000095
2022-10-14T05:44:55.556Z,4
2022-10-14T05:45:56.069Z,5.099999905
2022-10-14T05:46:56.613Z,5.599999905
2022-10-14T05:47:57.084Z,8
2022-10-14T05:48:57.554Z,11
2022-10-14T05:49:58.112Z,9.800000191
2022-10-14T05:50:59.575Z,8.600000381
2022-10-14T05:52:00.085Z,8.199999809
2022-10-14T05:53:00.574Z,11.19999981
2022-10-14T05:54:01.099Z,9
2022-10-14T05:55:02.327Z,15.10000038
2022-10-14T05:56:02.841Z,11.39999962
2022-10-14T05:57:03.382Z,11.19999981
2022-10-14T05:58:03.875Z,8.199999809
2022-10-14T05:59:04.415Z,12
2022-10-14T06:00:04.950Z,11.39999962
2022-10-14T06:01:06.013Z,12
2022-10-14T06:02:06.577Z,9.800000191
2022-10-14T06:03:07.156Z,7.5
2022-10-14T06:04:07.634Z,10.10000038
2022-10-14T06:05:08.150Z,9.699999809
2022-10-14T06:06:08.633Z,7.599999905
2022-10-14T06:07:09.121Z,5.699999809
2022-10-14T06:08:40.023Z,4.599999905
2022-10-14T06:09:40.506Z,4.800000191
2022-10-14T06:10:41.809Z,6.199999809
2022-10-14T06:11:42.300Z,7
2022-10-14T06:12:42.829Z,6.5
2022-10-14T06:13:43.359Z,5.400000095
2022-10-14T06:14:43.937Z,7.400000095
2022-10-14T06:15:44.455Z,7
2022-10-14T06:16:44.941Z,5.800000191
2022-10-14T06:17:45.452Z,9.100000381
2022-10-14T06:18:47.355Z,5.400000095
2022-10-14T06:19:46.452Z,5.599999905
2022-10-14T06:20:47.831Z,7.599999905
2022-10-14T06:21:48.307Z,5.599999905
2022-10-14T06:22:48.857Z,6.199999809
2022-10-14T06:23:49.348Z,7.900000095
2022-10-14T06:24:49.852Z,11.19999981
2022-10-14T06:25:51.076Z,5
2022-10-14T06:26:51.544Z,9.800000191
2022-10-14T06:27:52.159Z,5.699999809
2022-10-14T06:28:52.584Z,8.800000191
2022-10-14T06:29:53.108Z,6.800000191
2022-10-14T06:30:54.316Z,6.5
2022-10-14T06:31:54.835Z,5.900000095
2022-10-14T06:32:55.388Z,6.599999905
2022-10-14T06:33:55.869Z,7.800000191
2022-10-14T06:34:56.379Z,10.89999962
2022-10-14T06:35:56.970Z,5.900000095
2022-10-14T06:37:01.971Z,8.699999809
2022-10-14T06:37:58.012Z,7.300000191
2022-10-14T06:38:58.517Z,6.099999905
2022-10-14T06:39:59.570Z,6.800000191
2022-10-14T06:41:00.111Z,6.099999905
2022-10-14T06:42:01.329Z,5.699999809
2022-10-14T06:43:01.851Z,6.900000095
2022-10-14T06:44:02.374Z,7.800000191
2022-10-14T06:45:02.875Z,12.80000019
2022-10-14T06:46:03.409Z,6.5
2022-10-14T06:47:03.881Z,5.900000095
2022-10-14T06:48:04.451Z,7.300000191
2022-10-14T06:49:04.944Z,7.5
2022-10-14T06:50:05.472Z,7.800000191
2022-10-14T06:51:06.830Z,7.199999809
2022-10-14T06:52:07.311Z,8.300000191
2022-10-14T06:53:07.930Z,8.100000381
2022-10-14T06:54:09.172Z,7.5
2022-10-14T06:55:40.638Z,8
2022-10-14T06:56:41.158Z,6
2022-10-14T06:57:41.681Z,5.599999905
2022-10-14T06:58:42.240Z,5.599999905
2022-10-14T06:59:42.880Z,4.900000095
2022-10-14T07:00:47.806Z,6.199999809
2022-10-14T07:01:45.925Z,6
2022-10-14T07:02:46.306Z,7
2022-10-14T07:03:46.996Z,3.700000048
2022-10-14T07:04:47.499Z,5
2022-10-14T07:05:48.024Z,3.799999952
2022-10-14T07:06:49.313Z,4.800000191
2022-10-14T07:07:49.905Z,6.900000095
2022-10-14T07:08:50.675Z,4.199999809
2022-10-14T07:09:51.268Z,4.099999905
2022-10-14T07:10:52.635Z,5.300000191
2022-10-14T07:11:53.148Z,4.800000191
2022-10-14T07:12:54.633Z,3.799999952
2022-10-14T07:13:55.111Z,5.699999809
2022-10-14T07:14:55.645Z,4.900000095
2022-10-14T07:15:56.122Z,6.5
2022-10-14T07:16:56.668Z,4.599999905
2022-10-14T07:17:57.856Z,5.599999905
2022-10-14T07:18:58.409Z,5
2022-10-14T07:19:58.921Z,5.400000095
2022-10-14T07:21:00.137Z,6.5
2022-10-14T07:22:01.334Z,4.900000095
2022-10-14T07:23:01.879Z,5.699999809
2022-10-14T07:24:02.505Z,4.800000191
2022-10-14T07:25:02.880Z,3.200000048
2022-10-14T07:26:03.417Z,5.400000095
2022-10-14T07:28:04.463Z,5
2022-10-14T07:29:05.055Z,4.599999905
2022-10-14T07:30:05.481Z,4.599999905
2022-10-14T07:31:05.987Z,4.5
2022-10-14T07:32:07.181Z,4.699999809
2022-10-14T07:33:07.740Z,4.900000095
2022-10-14T07:34:39.069Z,7.599999905
2022-10-14T07:35:39.595Z,5.099999905
2022-10-14T07:36:40.040Z,3.799999952
2022-10-14T07:37:40.561Z,6.699999809
2022-10-14T07:38:41.127Z,6.699999809
2022-10-14T07:39:41.641Z,5.099999905
2022-10-14T07:40:42.091Z,12
2022-10-14T07:41:43.540Z,5.199999809
2022-10-14T07:42:44.107Z,9.800000191
2022-10-14T07:43:44.617Z,4.800000191
2022-10-14T07:44:45.170Z,3.5
2022-10-14T07:45:45.663Z,3.700000048
2022-10-14T07:46:46.152Z,6
2022-10-14T07:47:46.656Z,4.099999905
2022-10-14T07:48:56.777Z,6.800000191
2022-10-14T07:49:47.793Z,3.599999905
2022-10-14T07:50:48.424Z,6.900000095
2022-10-14T07:51:49.625Z,5
2022-10-14T07:52:50.505Z,5.599999905
2022-10-14T07:53:51.172Z,3.900000095
2022-10-14T07:54:51.738Z,6.800000191
2022-10-14T07:55:53.091Z,4.599999905
2022-10-14T07:56:53.572Z,5.5
2022-10-14T07:57:57.706Z,6.099999905
2022-10-14T07:58:58.969Z,7
2022-10-14T07:59:59.554Z,5.599999905
2022-10-14T08:01:00.143Z,7.400000095
2022-10-14T08:02:01.774Z,5.400000095
2022-10-14T08:03:02.404Z,5.900000095
2022-10-14T08:04:03.031Z,5.800000191
2022-10-14T08:05:25.500Z,6.099999905
2022-10-14T08:06:04.173Z,7.199999809
2022-10-14T08:07:05.060Z,5.199999809
2022-10-14T08:08:06.824Z,7.900000095
2022-10-14T08:09:08.358Z,4.800000191
2022-10-14T08:10:40.247Z,5.300000191
2022-10-14T08:11:41.331Z,5.800000191
2022-10-14T08:12:41.806Z,4.800000191
2022-10-14T08:13:45.255Z,8.100000381
2022-10-14T08:14:42.851Z,4.900000095
2022-10-14T08:15:43.437Z,4.900000095
2022-10-14T08:16:43.976Z,4.900000095
2022-10-14T08:17:44.467Z,7
2022-10-14T08:18:50.036Z,7.800000191
2022-10-14T08:19:50.654Z,7.5
2022-10-14T08:20:51.399Z,5.5
2022-10-14T08:21:52.841Z,7.300000191
2022-10-14T08:22:53.324Z,3.599999905
2022-10-14T08:23:53.802Z,5.400000095
2022-10-14T08:24:54.268Z,4.699999809
2022-10-14T08:25:54.844Z,4.400000095
2022-10-14T08:26:55.354Z,5
2022-10-14T08:27:55.890Z,4.099999905
2022-10-14T08:28:56.462Z,6.699999809
2022-10-14T08:29:56.844Z,8.100000381
2022-10-14T08:30:58.732Z,6.300000191
2022-10-14T08:31:59.835Z,4.699999809
2022-10-14T08:33:00.354Z,5
2022-10-14T08:34:00.828Z,7.400000095
2022-10-14T08:35:01.283Z,8.800000191
2022-10-14T08:36:01.935Z,7.599999905
2022-10-14T08:37:02.385Z,5.900000095
2022-10-14T08:38:02.873Z,10.80000019
2022-10-14T08:39:03.430Z,7.400000095
2022-10-14T08:40:03.877Z,7.099999905
2022-10-14T08:41:05.145Z,5.900000095
2022-10-14T08:42:06.846Z,6.599999905
2022-10-14T08:43:07.352Z,9.300000191
2022-10-14T08:44:38.350Z,7.400000095
2022-10-14T08:45:38.832Z,6.099999905
2022-10-14T08:46:39.938Z,6.599999905
2022-10-14T08:47:40.480Z,8.300000191
2022-10-14T08:48:40.970Z,6.800000191
2022-10-14T08:49:41.537Z,7.199999809
2022-10-14T08:50:42.576Z,7.699999809
2022-10-14T08:51:43.211Z,8.699999809
2022-10-14T08:52:44.324Z,6.599999905
2022-10-14T08:53:44.834Z,7.099999905
2022-10-14T08:54:45.359Z,6.900000095
2022-10-14T08:55:45.836Z,8.800000191
2022-10-14T08:56:46.347Z,6
2022-10-14T08:57:46.826Z,6.599999905
2022-10-14T08:58:47.358Z,9.399999619
2022-10-14T08:59:47.849Z,6.5
2022-10-14T09:00:48.411Z,9.100000381
2022-10-14T09:01:49.857Z,5.599999905
2022-10-14T09:02:50.719Z,7
2022-10-14T09:03:51.259Z,6.5
2022-10-14T09:04:51.717Z,4.300000191
2022-10-14T09:05:52.175Z,4.199999809
2022-10-14T09:06:52.670Z,7.699999809
2022-10-14T09:07:53.342Z,4.5
2022-10-14T09:08:53.929Z,7.099999905
2022-10-14T09:09:54.477Z,6.5
2022-10-14T09:10:55.054Z,4.800000191
2022-10-14T09:11:55.531Z,5.199999809
2022-10-14T09:12:55.969Z,6.5
2022-10-14T09:13:57.222Z,5.400000095
2022-10-14T09:14:57.781Z,5.599999905
2022-10-14T09:15:58.363Z,5.800000191
2022-10-14T09:16:58.989Z,5.5
2022-10-14T09:17:59.390Z,4.5
2022-10-14T09:18:59.846Z,5.199999809
2022-10-14T09:20:00.405Z,4.199999809
2022-10-14T09:21:00.924Z,5.5
2022-10-14T09:22:02.413Z,7.900000095
2022-10-14T09:23:02.853Z,4.400000095
2022-10-14T09:24:03.325Z,6.900000095
2022-10-14T09:25:03.922Z,10.39999962
2022-10-14T09:26:04.447Z,11.39999962
2022-10-14T09:27:04.951Z,8.5
2022-10-14T09:28:05.428Z,13.5
2022-10-14T09:29:05.930Z,7.900000095
2022-10-14T09:30:06.471Z,9.199999809
2022-10-14T09:31:07.451Z,8.399999619
2022-10-14T09:32:38.903Z,6.900000095
2022-10-14T09:33:42.305Z,5.800000191
2022-10-14T09:34:40.549Z,9.699999809
2022-10-14T09:35:41.062Z,8.800000191
2022-10-14T09:36:41.587Z,7.5
2022-10-14T09:37:42.105Z,10.30000019
2022-10-14T09:38:43.103Z,8
2022-10-14T09:39:43.594Z,6.900000095
2022-10-14T09:40:44.122Z,10.60000038
2022-10-14T09:41:44.623Z,7.5
2022-10-14T09:42:46.110Z,8.5
2022-10-14T09:43:46.706Z,9
2022-10-14T09:44:47.210Z,7.400000095
2022-10-14T09:45:47.781Z,10.89999962
2022-10-14T09:46:48.291Z,7.900000095
2022-10-14T09:47:48.815Z,8.399999619
2022-10-14T09:48:49.287Z,7.800000191
2022-10-14T09:49:49.800Z,9.300000191
2022-10-14T09:50:50.626Z,8.899999619
2022-10-14T09:51:51.152Z,7.699999809
2022-10-14T09:52:52.652Z,8.5
2022-10-14T09:53:53.139Z,10.30000019
2022-10-14T09:54:53.604Z,11
2022-10-14T09:55:54.100Z,6.699999809
2022-10-14T09:56:54.563Z,9.699999809
2022-10-14T09:57:55.922Z,9.800000191
2022-10-14T09:58:56.397Z,10.19999981
2022-10-14T09:59:56.874Z,8.800000191
2022-10-14T10:00:57.318Z,12.60000038
2022-10-14T10:01:58.360Z,9.800000191
2022-10-14T10:02:58.957Z,10.89999962
2022-10-14T10:04:00.261Z,8.199999809
2022-10-14T10:05:00.569Z,8
2022-10-14T10:06:01.088Z,10.5
2022-10-14T10:07:01.569Z,8.199999809
2022-10-14T10:08:02.144Z,8.699999809
2022-10-14T10:09:02.642Z,8.300000191
2022-10-14T10:10:03.147Z,6
2022-10-14T10:11:06.635Z,7.400000095
2022-10-14T10:12:04.050Z,6.900000095
2022-10-14T10:13:05.128Z,10.19999981
2022-10-14T10:14:05.553Z,6.5
2022-10-14T10:15:06.096Z,10.39999962
2022-10-14T10:16:37.360Z,8.399999619
2022-10-14T10:17:37.840Z,7.900000095
2022-10-14T10:18:39.126Z,7.599999905
2022-10-14T10:19:39.586Z,9
2022-10-14T10:20:40.852Z,8.699999809
2022-10-14T10:21:41.347Z,7
2022-10-14T10:22:42.563Z,7.800000191
2022-10-14T10:23:43.072Z,8.899999619
2022-10-14T10:24:44.332Z,11.30000019
2022-10-14T10:25:44.824Z,10.80000019
2022-10-14T10:26:45.834Z,7.5
2022-10-14T10:27:46.299Z,10
2022-10-14T10:28:46.833Z,11.89999962
2022-10-14T10:29:47.287Z,10.10000038
2022-10-14T10:30:48.664Z,9.899999619
2022-10-14T10:31:49.201Z,8.800000191
2022-10-14T10:32:50.680Z,9.899999619
2022-10-14T10:33:51.255Z,10.10000038
2022-10-14T10:34:51.796Z,7.5
2022-10-14T10:35:52.289Z,8.800000191
2022-10-14T10:36:52.806Z,7.199999809
2022-10-14T10:37:53.374Z,9.300000191
2022-10-14T10:38:53.943Z,10.89999962
2022-10-14T10:39:54.421Z,9
2022-10-14T10:40:54.913Z,8.600000381
2022-10-14T10:41:55.398Z,9.5
2022-10-14T10:42:56.612Z,12.5
2022-10-14T10:43:57.220Z,6
2022-10-14T10:44:57.725Z,8.899999619
2022-10-14T10:45:58.276Z,8.399999619
2022-10-14T10:46:58.820Z,10.39999962
2022-10-14T10:47:59.316Z,9.600000381
2022-10-14T10:48:59.831Z,9.699999809
2022-10-14T10:50:00.601Z,6.5
2022-10-14T10:51:01.652Z,7
2022-10-14T10:52:02.233Z,7.5
2022-10-14T10:53:03.590Z,8.199999809
2022-10-14T10:54:04.139Z,6.699999809
2022-10-14T10:55:04.606Z,11.10000038
2022-10-14T10:56:05.106Z,8.100000381
2022-10-14T10:57:05.667Z,8.300000191
2022-10-14T10:58:37.697Z,7.800000191
2022-10-14T10:59:38.219Z,9
2022-10-14T11:00:38.800Z,7.699999809
2022-10-14T11:01:39.411Z,9.699999809
2022-10-14T11:02:40.608Z,8.100000381
2022-10-14T11:03:41.096Z,6.599999905
2022-10-14T11:04:42.132Z,9.800000191
2022-10-14T11:05:42.763Z,7
2022-10-14T11:06:43.257Z,8.199999809
2022-10-14T11:07:43.721Z,10.30000019
2022-10-14T11:08:44.206Z,7.199999809
2022-10-14T11:09:44.710Z,10.89999962
2022-10-14T11:10:45.233Z,9.300000191
2022-10-14T11:11:45.695Z,8.5
2022-10-14T11:12:46.873Z,7.400000095
2022-10-14T11:13:47.388Z,6.699999809
2022-10-14T11:14:47.905Z,11.19999981
2022-10-14T11:15:48.354Z,8.199999809
2022-10-14T11:16:48.832Z,9.399999619
2022-10-14T11:17:49.360Z,6.900000095
2022-10-14T11:18:50.720Z,8.399999619
2022-10-14T11:19:51.244Z,7.699999809
2022-10-14T11:20:51.682Z,10
2022-10-14T11:21:52.148Z,5.800000191
2022-10-14T11:22:53.370Z,5.699999809
2022-10-14T11:23:53.813Z,11.39999962
2022-10-14T11:24:54.357Z,5.900000095
2022-10-14T11:25:55.762Z,7
2022-10-14T11:26:56.246Z,9.100000381
2022-10-14T11:27:56.731Z,5.300000191
2022-10-14T11:28:57.328Z,7.599999905
2022-10-14T11:29:57.801Z,6.900000095
2022-10-14T11:30:58.248Z,7.699999809
2022-10-14T11:31:58.752Z,10.89999962
2022-10-14T11:32:59.885Z,7.900000095
2022-10-14T11:34:00.378Z,7
2022-10-14T11:35:00.869Z,7.699999809
2022-10-14T11:36:01.538Z,7.599999905
2022-10-14T11:37:01.941Z,8
2022-10-14T11:38:02.379Z,5.099999905
2022-10-14T11:39:02.843Z,8.100000381
2022-10-14T11:40:04.106Z,9
2022-10-14T11:41:04.590Z,7.5